Time;durP1;ratioP1;P1;durP2;ratioP2;P2;SDS_P1;SDS_P2;PMS_P1;PMS_P2;Temp;Humidity;BMP_temperature;BMP_pressure;BME280_temperature;BME280_humidity;BME280_pressure;Samples;Min_cycle;Max_cycle;Signal;HPM_P1;HPM_P2
2023/03/22 00:02:13;;;;;;;17.23;11.40;;;10.30;99.90;;;;;;5036923;28;20029;-48
2023/03/22 00:04:41;;;;;;;16.00;11.83;;;10.30;99.90;;;;;;5033854;28;20729;-48
2023/03/22 00:07:07;;;;;;;15.55;10.43;;;10.30;99.90;;;;;;5049682;28;20079;-49
2023/03/22 00:09:32;;;;;;;14.93;9.70;;;10.30;99.90;;;;;;5049378;28;20090;-48
2023/03/22 00:11:58;;;;;;;13.82;10.18;;;10.30;99.90;;;;;;5047187;28;20793;-49
2023/03/22 00:14:24;;;;;;;16.47;11.03;;;10.30;99.90;;;;;;5047191;28;20489;-48
2023/03/22 00:16:50;;;;;;;21.75;12.05;;;10.30;99.90;;;;;;5045922;28;20110;-47
2023/03/22 00:19:16;;;;;;;16.10;11.07;;;10.30;99.90;;;;;;5038385;28;20471;-48
2023/03/22 00:21:42;;;;;;;15.90;10.10;;;10.30;99.90;;;;;;5046622;28;20393;-48
2023/03/22 00:24:07;;;;;;;13.73;9.93;;;10.30;99.90;;;;;;5041555;28;20040;-48
2023/03/22 00:26:33;;;;;;;18.20;11.05;;;10.30;99.90;;;;;;5035007;28;20080;-48
2023/03/22 00:28:59;;;;;;;13.23;10.70;;;10.30;99.90;;;;;;5040969;28;20116;-48
2023/03/22 00:31:25;;;;;;;17.05;10.95;;;10.30;99.90;;;;;;5041979;28;20544;-48
2023/03/22 00:33:50;;;;;;;22.85;10.73;;;10.30;99.90;;;;;;5042570;28;20036;-48
2023/03/22 00:36:16;;;;;;;17.83;9.87;;;10.20;99.90;;;;;;5034726;28;20510;-48
2023/03/22 00:38:41;;;;;;;14.03;9.07;;;10.20;99.90;;;;;;5043502;28;20341;-48
2023/03/22 00:41:12;;;;;;;12.30;8.67;;;10.20;99.90;;;;;;5041991;28;20518;-48
2023/03/22 00:43:38;;;;;;;12.77;8.43;;;10.10;99.90;;;;;;5034177;28;20041;-48
2023/03/22 00:46:04;;;;;;;17.77;8.73;;;10.10;99.90;;;;;;5032568;28;20176;-48
2023/03/22 00:48:30;;;;;;;15.45;8.18;;;10.10;99.90;;;;;;5033386;28;20488;-48
2023/03/22 00:50:56;;;;;;;13.73;8.00;;;10.00;99.90;;;;;;5049058;28;20040;-49
2023/03/22 00:53:22;;;;;;;13.27;7.65;;;10.00;99.90;;;;;;5049040;28;20041;-49
2023/03/22 00:55:47;;;;;;;15.37;7.87;;;10.00;99.90;;;;;;5034320;28;20474;-48
2023/03/22 00:58:13;;;;;;;13.20;8.43;;;9.90;99.90;;;;;;5048446;28;20777;-48
2023/03/22 01:00:39;;;;;;;14.17;8.23;;;9.90;99.90;;;;;;5048919;28;20033;-48
2023/03/22 01:03:05;;;;;;;15.20;8.03;;;9.90;99.90;;;;;;5045900;28;20294;-49
2023/03/22 01:05:32;;;;;;;17.42;7.50;;;9.90;99.90;;;;;;5047873;28;20492;-48
2023/03/22 01:08:07;;;;;;;15.07;6.57;;;9.90;99.90;;;;;;5047534;28;20037;-48
2023/03/22 01:10:39;;;;;;;12.02;6.22;;;9.90;99.90;;;;;;5049063;28;20044;-48
2023/03/22 01:13:06;;;;;;;12.93;5.47;;;10.00;99.90;;;;;;5048158;28;20048;-49
2023/03/22 01:15:32;;;;;;;11.98;5.45;;;9.90;99.90;;;;;;5030581;28;20059;-48
2023/03/22 01:17:57;;;;;;;10.77;5.77;;;10.00;99.90;;;;;;5029775;28;20120;-48
2023/03/22 01:20:24;;;;;;;10.88;5.15;;;10.00;99.90;;;;;;5030847;28;20111;-48
2023/03/22 01:22:50;;;;;;;9.43;5.53;;;10.00;99.90;;;;;;5031549;28;20032;-48
2023/03/22 01:25:16;;;;;;;10.03;5.90;;;10.00;99.90;;;;;;5030653;28;20040;-48
2023/03/22 01:27:41;;;;;;;15.02;5.57;;;10.00;99.90;;;;;;5029795;28;20284;-49
2023/03/22 01:30:08;;;;;;;11.85;6.07;;;9.90;99.90;;;;;;5031061;28;20068;-48
2023/03/22 01:32:35;;;;;;;8.75;4.93;;;9.90;99.90;;;;;;5031430;28;20033;-48
2023/03/22 01:35:01;;;;;;;12.13;4.82;;;9.90;99.90;;;;;;5034173;28;20415;-48
2023/03/22 01:37:26;;;;;;;10.13;5.50;;;9.90;99.90;;;;;;5029983;28;20037;-48
2023/03/22 01:39:54;;;;;;;10.27;5.23;;;9.90;99.90;;;;;;5030850;28;20696;-48
2023/03/22 01:42:21;;;;;;;10.57;5.25;;;9.90;99.90;;;;;;5032920;28;20030;-48
2023/03/22 01:45:15;;;;;;;9.35;5.68;;;9.90;99.90;;;;;;5032458;28;20495;-48
2023/03/22 01:48:07;;;;;;;11.45;6.20;;;9.90;99.90;;;;;;5043337;28;20040;-48
2023/03/22 01:50:32;;;;;;;9.55;6.07;;;9.90;99.90;;;;;;5044695;28;20033;-48
2023/03/22 01:53:00;;;;;;;14.13;6.23;;;9.90;99.90;;;;;;5045887;28;20040;-48
2023/03/22 01:55:26;;;;;;;15.05;6.10;;;9.90;99.90;;;;;;5042661;28;20283;-49
2023/03/22 01:57:53;;;;;;;13.25;6.07;;;9.90;99.90;;;;;;5038416;28;20395;-48
2023/03/22 02:00:19;;;;;;;10.18;5.88;;;9.90;99.90;;;;;;5038796;28;20397;-48
2023/03/22 02:02:49;;;;;;;12.93;5.68;;;9.90;99.90;;;;;;5034716;28;20486;-49
2023/03/22 02:05:15;;;;;;;10.23;5.57;;;9.90;99.90;;;;;;5031143;28;20072;-48
2023/03/22 02:07:41;;;;;;;10.60;4.95;;;9.90;99.90;;;;;;5046464;28;20116;-48
2023/03/22 02:10:16;;;;;;;15.43;6.22;;;9.90;99.90;;;;;;5043689;28;20039;-48
2023/03/22 02:12:48;;;;;;;10.63;4.45;;;9.90;99.90;;;;;;5045323;28;20262;-48
2023/03/22 02:15:24;;;;;;;16.25;5.10;;;9.90;99.90;;;;;;5029993;28;20040;-48
2023/03/22 02:18:22;;;;;;;10.15;4.53;;;9.90;99.90;;;;;;5029803;28;20065;-49
2023/03/22 02:21:07;;;;;;;14.55;5.10;;;9.90;99.90;;;;;;5034510;28;20052;-48
2023/03/22 02:24:18;;;;;;;13.57;5.70;;;9.90;99.90;;;;;;5045983;28;20040;-48
2023/03/22 02:26:53;;;;;;;11.00;4.38;;;9.90;99.90;;;;;;5014932;28;20048;-48
2023/03/22 02:29:25;;;;;;;14.93;5.18;;;9.90;99.90;;;;;;5042738;28;20525;-51
2023/03/22 02:32:36;;;;;;;10.77;5.03;;;9.80;99.90;;;;;;5045900;28;20414;-48
2023/03/22 02:35:32;;;;;;;9.63;4.07;;;9.90;99.90;;;;;;5047044;28;20068;-48
2023/03/22 02:38:04;;;;;;;12.45;4.47;;;9.80;99.90;;;;;;5046464;28;20041;-48
2023/03/22 02:40:37;;;;;;;8.20;4.15;;;9.90;99.90;;;;;;5043434;28;20135;-49
2023/03/22 02:43:37;;;;;;;12.38;3.95;;;9.80;99.90;;;;;;5045356;28;20502;-48
2023/03/22 02:46:23;;;;;;;11.43;3.40;;;9.80;99.90;;;;;;5047543;28;20044;-48
2023/03/22 02:49:39;;;;;;;9.95;4.20;;;9.80;99.90;;;;;;5045376;28;20041;-48
2023/03/22 02:52:28;;;;;;;13.40;4.07;;;9.90;99.90;;;;;;4986457;28;20042;-48
2023/03/22 02:55:05;;;;;;;5.47;3.00;;;9.90;99.90;;;;;;4970718;28;20080;-47
2023/03/22 02:57:43;;;;;;;10.65;4.18;;;9.80;99.90;;;;;;4985531;28;20482;-48
2023/03/22 03:00:12;;;;;;;7.32;3.47;;;9.90;99.90;;;;;;4984849;28;20042;-48
2023/03/22 03:02:45;;;;;;;10.65;4.10;;;9.80;99.90;;;;;;4984792;28;20054;-49
2023/03/22 03:05:13;;;;;;;11.10;4.95;;;9.90;99.90;;;;;;4980910;28;20086;-48
2023/03/22 03:07:43;;;;;;;13.88;4.15;;;9.90;99.90;;;;;;4982401;28;20034;-48
2023/03/22 03:10:11;;;;;;;12.57;3.33;;;9.90;99.90;;;;;;4983766;28;20090;-48
2023/03/22 03:12:36;;;;;;;18.10;4.47;;;9.90;99.90;;;;;;4969028;28;20411;-47
2023/03/22 03:15:14;;;;;;;9.80;3.00;;;9.90;99.90;;;;;;4986535;28;20046;-48
2023/03/22 03:18:15;;;;;;;11.82;4.00;;;9.90;99.90;;;;;;4968753;28;20133;-48
2023/03/22 03:21:03;;;;;;;6.75;2.13;;;9.90;99.90;;;;;;4985728;28;20405;-48
2023/03/22 03:23:38;;;;;;;7.75;2.42;;;9.90;99.90;;;;;;5018269;28;20414;-48
2023/03/22 03:26:28;;;;;;;10.85;3.00;;;9.90;99.90;;;;;;5031280;28;20041;-48
2023/03/22 03:29:07;;;;;;;3.88;2.53;;;9.90;99.90;;;;;;5046365;28;20043;-48
2023/03/22 03:31:54;;;;;;;6.70;3.00;;;9.90;99.90;;;;;;5048105;28;20076;-48
2023/03/22 03:34:32;;;;;;;9.87;3.43;;;9.90;99.90;;;;;;5040896;28;20064;-48
2023/03/22 03:37:27;;;;;;;7.05;2.95;;;10.00;99.90;;;;;;5047824;28;20533;-48
2023/03/22 03:40:16;;;;;;;7.47;2.92;;;9.90;99.90;;;;;;5038548;28;20526;-48
2023/03/22 03:42:47;;;;;;;14.48;3.55;;;10.00;99.90;;;;;;5034724;28;20036;-48
2023/03/22 03:45:14;;;;;;;11.25;3.47;;;10.00;99.90;;;;;;5034804;28;20094;-48
2023/03/22 03:47:43;;;;;;;10.68;3.42;;;10.00;99.90;;;;;;5031161;28;20080;-48
2023/03/22 03:50:11;;;;;;;9.95;3.90;;;10.00;99.90;;;;;;5038109;28;20045;-48
2023/03/22 03:52:37;;;;;;;10.10;5.22;;;10.10;99.90;;;;;;5042688;28;20044;-48
2023/03/22 03:55:03;;;;;;;13.73;5.28;;;10.00;99.90;;;;;;5050091;28;20033;-48
2023/03/22 03:57:29;;;;;;;11.32;5.47;;;10.00;99.90;;;;;;5043140;28;20048;-49
2023/03/22 03:59:54;;;;;;;10.23;5.53;;;10.00;99.90;;;;;;5034226;28;20434;-48
2023/03/22 04:02:20;;;;;;;7.77;6.03;;;10.00;99.90;;;;;;5030919;28;20056;-48
2023/03/22 04:04:45;;;;;;;10.33;6.33;;;10.00;99.90;;;;;;5048648;28;20032;-48
2023/03/22 04:07:11;;;;;;;14.37;7.53;;;10.00;99.90;;;;;;5048668;28;20044;-48
2023/03/22 04:09:39;;;;;;;11.93;7.73;;;10.00;99.90;;;;;;5046225;28;21035;-48
2023/03/22 04:12:05;;;;;;;14.15;7.75;;;10.00;99.90;;;;;;5049245;28;20053;-48
2023/03/22 04:14:30;;;;;;;19.90;10.20;;;10.10;99.90;;;;;;5045510;28;20037;-48
2023/03/22 04:16:56;;;;;;;24.63;10.60;;;10.10;99.90;;;;;;5039728;28;20433;-48
2023/03/22 04:19:22;;;;;;;16.23;10.20;;;10.10;99.90;;;;;;5046354;28;20035;-48
2023/03/22 04:21:48;;;;;;;20.88;13.10;;;10.20;99.90;;;;;;5045661;28;20037;-48
2023/03/22 04:24:14;;;;;;;17.70;10.43;;;10.20;99.90;;;;;;5046493;28;20037;-48
2023/03/22 04:26:40;;;;;;;18.15;11.30;;;10.20;99.90;;;;;;5037113;28;20422;-49
2023/03/22 04:29:06;;;;;;;18.60;11.77;;;10.20;99.90;;;;;;5031883;28;20069;-48
2023/03/22 04:31:34;;;;;;;18.85;12.38;;;10.20;99.90;;;;;;5030990;28;20065;-48
2023/03/22 04:34:05;;;;;;;20.05;11.95;;;10.20;99.90;;;;;;5032546;28;20506;-48
2023/03/22 04:36:38;;;;;;;18.80;12.25;;;10.20;99.90;;;;;;5031613;28;20037;-48
2023/03/22 04:39:12;;;;;;;16.63;11.95;;;10.20;99.90;;;;;;5041021;28;20045;-48
2023/03/22 04:41:38;;;;;;;16.15;11.55;;;10.20;99.90;;;;;;5047770;28;20227;-49
2023/03/22 04:44:05;;;;;;;16.90;11.83;;;10.20;99.90;;;;;;5034163;28;20048;-48
2023/03/22 04:46:33;;;;;;;17.70;12.60;;;10.20;99.90;;;;;;5039263;28;20578;-48
2023/03/22 04:48:59;;;;;;;15.45;11.63;;;10.20;99.90;;;;;;5038605;28;20087;-49
2023/03/22 04:51:26;;;;;;;17.85;11.32;;;10.20;99.90;;;;;;5045153;28;20033;-48
2023/03/22 04:53:52;;;;;;;;;;;10.20;99.90;;;;;;5031947;28;20082;-48
2023/03/22 04:56:17;;;;;;;20.50;11.73;;;10.20;99.90;;;;;;5032361;28;20356;-48
2023/03/22 04:58:44;;;;;;;19.27;11.75;;;10.20;99.90;;;;;;5031879;28;20498;-49
2023/03/22 05:01:13;;;;;;;17.23;12.68;;;10.20;99.90;;;;;;5040296;28;20395;-48
2023/03/22 05:03:40;;;;;;;15.30;13.07;;;10.20;99.90;;;;;;5031441;28;20040;-48
2023/03/22 05:06:08;;;;;;;16.20;12.27;;;10.20;99.90;;;;;;5034190;28;20037;-48
2023/03/22 05:08:34;;;;;;;15.13;12.05;;;10.20;99.90;;;;;;5040968;28;20414;-48
2023/03/22 05:11:06;;;;;;;15.18;11.45;;;10.20;99.90;;;;;;5045235;28;20025;-48
2023/03/22 05:13:32;;;;;;;21.33;12.02;;;10.20;99.90;;;;;;5043222;28;20405;-49
2023/03/22 05:15:58;;;;;;;17.00;11.90;;;10.20;99.90;;;;;;5048637;28;20029;-48
2023/03/22 05:18:25;;;;;;;;;;;10.20;99.90;;;;;;5039256;28;20308;-49
2023/03/22 05:20:54;;;;;;;23.52;12.48;;;10.30;99.90;;;;;;5031248;28;19944;-48
2023/03/22 05:23:21;;;;;;;19.40;11.75;;;10.20;99.90;;;;;;5035742;28;20114;-48
2023/03/22 05:25:48;;;;;;;17.52;12.25;;;10.30;99.90;;;;;;5031755;28;20044;-48
2023/03/22 05:28:15;;;;;;;18.58;11.85;;;10.30;99.90;;;;;;5046386;28;20055;-48
2023/03/22 05:30:42;;;;;;;16.15;12.07;;;10.30;99.90;;;;;;5044482;28;20048;-48
2023/03/22 05:33:08;;;;;;;14.07;11.25;;;10.30;99.90;;;;;;5036848;28;20103;-48
2023/03/22 05:35:35;;;;;;;15.68;11.32;;;10.30;99.90;;;;;;5039490;28;20124;-48
2023/03/22 05:38:02;;;;;;;14.15;10.90;;;10.30;99.90;;;;;;5046564;28;20045;-48
2023/03/22 05:40:27;;;;;;;13.88;11.20;;;10.30;99.90;;;;;;5040486;28;20025;-50
2023/03/22 05:42:54;;;;;;;13.27;11.55;;;10.30;99.90;;;;;;5040085;28;20037;-48
2023/03/22 05:45:21;;;;;;;20.88;10.43;;;10.30;99.90;;;;;;5044124;28;20045;-48
2023/03/22 05:47:47;;;;;;;14.80;10.63;;;10.30;99.90;;;;;;5029761;28;20040;-49
2023/03/22 05:50:15;;;;;;;;;;;10.30;99.90;;;;;;5037050;28;20092;-48
2023/03/22 05:52:43;;;;;;;16.48;10.88;;;10.30;99.90;;;;;;5046865;28;19956;-49
2023/03/22 05:55:11;;;;;;;11.45;10.25;;;10.40;99.90;;;;;;5047209;28;20557;-49
2023/03/22 05:57:37;;;;;;;12.43;9.93;;;10.40;99.90;;;;;;5046980;28;20076;-48
2023/03/22 06:00:08;;;;;;;19.50;10.98;;;10.40;99.90;;;;;;5047113;28;20033;-48
2023/03/22 06:02:34;;;;;;;12.88;10.38;;;10.40;99.90;;;;;;5045606;28;20040;-50
2023/03/22 06:04:59;;;;;;;13.15;9.30;;;10.40;99.90;;;;;;5047890;28;20033;-49
2023/03/22 06:07:25;;;;;;;12.87;9.27;;;10.40;99.90;;;;;;5044596;28;20032;-49
2023/03/22 06:09:51;;;;;;;17.02;9.32;;;10.40;99.90;;;;;;5046078;28;20037;-49
2023/03/22 06:12:17;;;;;;;15.57;9.18;;;10.40;99.90;;;;;;5046198;28;20116;-48
2023/03/22 06:14:43;;;;;;;13.18;8.77;;;10.40;99.90;;;;;;5046975;28;20075;-48
2023/03/22 06:17:09;;;;;;;20.13;9.27;;;10.40;99.90;;;;;;5044811;28;20048;-48
2023/03/22 06:19:35;;;;;;;;;;;10.40;99.90;;;;;;5044177;28;20108;-48
2023/03/22 06:22:00;;;;;;;16.25;9.13;;;10.40;99.90;;;;;;5029683;28;20015;-48
2023/03/22 06:24:26;;;;;;;13.87;9.40;;;10.40;99.90;;;;;;5041852;28;20045;-48
2023/03/22 06:26:51;;;;;;;16.23;8.07;;;10.40;99.90;;;;;;5040913;28;20352;-48
2023/03/22 06:29:17;;;;;;;14.20;7.70;;;10.30;99.90;;;;;;5043720;28;20029;-52
2023/03/22 06:31:42;;;;;;;16.57;8.13;;;10.30;99.90;;;;;;5033578;28;20033;-50
2023/03/22 06:34:08;;;;;;;17.70;8.83;;;10.30;99.90;;;;;;5040956;28;20122;-48
2023/03/22 06:36:34;;;;;;;12.87;8.37;;;10.30;99.90;;;;;;5039895;28;20086;-48
2023/03/22 06:39:01;;;;;;;15.05;8.50;;;10.30;99.90;;;;;;5038496;28;20056;-49
2023/03/22 06:41:27;;;;;;;11.40;7.05;;;10.30;99.90;;;;;;5046636;28;20044;-48
2023/03/22 06:43:52;;;;;;;13.77;8.35;;;10.30;99.90;;;;;;5032808;28;20037;-48
2023/03/22 06:46:18;;;;;;;14.43;7.55;;;10.30;99.90;;;;;;5031632;28;20503;-49
2023/03/22 06:48:44;;;;;;;12.77;6.93;;;10.30;99.90;;;;;;5028839;28;20146;-48
2023/03/22 06:51:09;;;;;;;12.35;6.97;;;10.30;99.90;;;;;;5040962;28;20279;-49
2023/03/22 06:53:35;;;;;;;12.90;7.32;;;10.30;99.90;;;;;;5047523;28;20510;-53
2023/03/22 06:56:01;;;;;;;12.40;5.80;;;10.40;99.90;;;;;;5031141;28;20437;-48
2023/03/22 06:58:26;;;;;;;11.67;6.60;;;10.40;99.90;;;;;;5029733;28;20122;-48
2023/03/22 07:00:54;;;;;;;15.20;8.35;;;10.40;99.90;;;;;;5029908;28;20041;-48
2023/03/22 07:03:20;;;;;;;12.75;6.47;;;10.50;99.90;;;;;;5035455;28;20033;-48
2023/03/22 07:05:45;;;;;;;11.87;6.10;;;10.50;99.90;;;;;;5035403;28;20508;-48
2023/03/22 07:08:11;;;;;;;9.90;5.97;;;10.60;99.90;;;;;;5033534;28;20037;-49
2023/03/22 07:10:36;;;;;;;8.00;5.47;;;10.70;99.90;;;;;;5034538;28;20568;-48
2023/03/22 07:13:02;;;;;;;11.15;5.18;;;10.70;99.90;;;;;;5049119;28;20033;-48
2023/03/22 07:15:29;;;;;;;11.70;5.38;;;10.80;99.90;;;;;;5042891;28;20127;-48
2023/03/22 07:17:55;;;;;;;11.73;5.68;;;10.80;99.90;;;;;;5044070;28;20581;-48
2023/03/22 07:20:20;;;;;;;10.60;5.20;;;10.80;99.90;;;;;;5041007;28;20108;-48
2023/03/22 07:22:48;;;;;;;9.27;5.30;;;10.90;99.90;;;;;;5042979;28;20042;-49
2023/03/22 07:25:13;;;;;;;10.85;4.28;;;10.90;99.90;;;;;;5042504;28;20041;-49
2023/03/22 07:27:39;;;;;;;9.30;4.27;;;10.90;99.90;;;;;;5037666;28;20040;-48
2023/03/22 07:30:05;;;;;;;11.88;4.63;;;10.90;99.90;;;;;;5038913;28;20291;-48
2023/03/22 07:32:31;;;;;;;15.57;4.68;;;11.00;99.90;;;;;;5049579;28;20379;-48
2023/03/22 07:34:56;;;;;;;14.77;4.63;;;11.00;99.90;;;;;;5048323;28;20040;-49
2023/03/22 07:37:22;;;;;;;9.73;3.97;;;11.00;99.90;;;;;;5036823;28;20418;-48
2023/03/22 07:39:47;;;;;;;14.97;4.43;;;11.00;99.90;;;;;;5037976;28;20334;-47
2023/03/22 07:42:13;;;;;;;10.30;4.38;;;11.00;99.90;;;;;;5041726;28;20108;-48
2023/03/22 07:44:39;;;;;;;11.57;5.23;;;11.00;99.90;;;;;;5034170;28;20819;-49
2023/03/22 07:47:04;;;;;;;8.80;4.55;;;11.10;99.90;;;;;;5040800;28;20319;-49
2023/03/22 07:49:30;;;;;;;12.77;4.18;;;11.10;99.90;;;;;;5037992;28;20540;-48
2023/03/22 07:51:56;;;;;;;9.60;3.80;;;11.10;99.90;;;;;;5043221;28;20414;-48
2023/03/22 07:54:22;;;;;;;8.95;3.33;;;11.20;99.90;;;;;;5041828;28;20570;-48
2023/03/22 07:56:47;;;;;;;11.35;3.35;;;11.20;99.90;;;;;;5038441;28;20128;-50
2023/03/22 07:59:16;;;;;;;8.40;2.65;;;11.30;99.90;;;;;;5035063;28;20041;-48
2023/03/22 08:01:43;;;;;;;10.10;3.58;;;11.30;99.90;;;;;;5034918;28;20402;-48
2023/03/22 08:04:09;;;;;;;;;;;11.40;99.90;;;;;;5039590;28;20037;-49
2023/03/22 08:06:35;;;;;;;8.88;2.90;;;11.50;99.90;;;;;;5033843;28;20341;-47
2023/03/22 08:09:07;;;;;;;10.02;3.00;;;11.50;99.90;;;;;;5036099;28;20116;-49
2023/03/22 08:11:33;;;;;;;8.35;3.85;;;11.50;99.90;;;;;;5038422;28;20033;-48
2023/03/22 08:13:58;;;;;;;6.65;3.05;;;11.50;99.90;;;;;;5037041;28;20642;-51
2023/03/22 08:16:24;;;;;;;5.53;2.87;;;11.40;99.90;;;;;;5037916;28;20120;-49
2023/03/22 08:18:50;;;;;;;10.52;2.92;;;11.30;99.90;;;;;;5037456;28;20403;-51
2023/03/22 08:21:15;;;;;;;6.85;1.83;;;11.30;99.90;;;;;;5040314;28;20410;-50
2023/03/22 08:23:41;;;;;;;6.72;2.80;;;11.30;99.90;;;;;;5043357;28;20068;-50
2023/03/22 08:26:07;;;;;;;10.23;2.90;;;11.30;99.90;;;;;;5040245;28;20041;-48
2023/03/22 08:28:32;;;;;;;7.68;2.63;;;11.30;99.90;;;;;;5042515;28;20037;-50
2023/03/22 08:30:58;;;;;;;14.37;2.40;;;11.30;99.90;;;;;;5035701;28;20037;-50
2023/03/22 08:33:24;;;;;;;12.10;3.00;;;11.30;99.90;;;;;;5037047;28;20294;-48
2023/03/22 08:35:50;;;;;;;7.88;2.95;;;11.30;99.90;;;;;;5037969;28;20299;-49
2023/03/22 08:38:16;;;;;;;10.00;2.60;;;11.30;99.90;;;;;;5037233;28;20052;-50
2023/03/22 08:40:45;;;;;;;7.57;1.88;;;11.30;99.90;;;;;;5037218;28;20411;-48
2023/03/22 08:43:11;;;;;;;9.95;1.90;;;11.30;99.90;;;;;;5038976;28;20119;-47
2023/03/22 08:45:37;;;;;;;10.00;2.43;;;11.40;99.90;;;;;;5038322;28;20175;-49
2023/03/22 08:48:03;;;;;;;6.82;2.53;;;11.40;99.90;;;;;;5040188;28;20306;-48
2023/03/22 08:50:29;;;;;;;11.45;2.45;;;11.40;99.90;;;;;;5043558;28;20340;-48
2023/03/22 08:52:55;;;;;;;9.85;2.95;;;11.40;99.90;;;;;;5045408;28;20463;-48
2023/03/22 08:55:20;;;;;;;14.20;3.83;;;11.50;99.90;;;;;;5045183;28;20371;-49
2023/03/22 08:57:49;;;;;;;7.45;2.72;;;11.50;99.90;;;;;;5044564;28;20044;-48
2023/03/22 09:00:16;;;;;;;9.82;2.80;;;11.50;99.90;;;;;;5037684;28;20052;-48
2023/03/22 09:02:42;;;;;;;9.05;2.38;;;11.50;99.90;;;;;;5044247;28;20052;-48
2023/03/22 09:05:08;;;;;;;9.60;2.83;;;11.50;99.90;;;;;;5043450;28;20045;-47
2023/03/22 09:07:34;;;;;;;6.50;2.40;;;11.50;99.90;;;;;;5042286;28;20037;-48
2023/03/22 09:10:00;;;;;;;7.15;2.78;;;11.40;99.90;;;;;;5044295;28;20632;-48
2023/03/22 09:12:26;;;;;;;9.48;2.28;;;11.40;99.90;;;;;;5042940;28;20040;-48
2023/03/22 09:14:52;;;;;;;8.40;2.95;;;11.50;99.90;;;;;;5042870;28;20045;-48
2023/03/22 09:17:18;;;;;;;6.38;2.88;;;11.60;99.90;;;;;;5044194;28;20051;-48
2023/03/22 09:19:46;;;;;;;9.27;2.83;;;11.70;99.90;;;;;;5041264;28;20398;-48
2023/03/22 09:22:12;;;;;;;8.45;2.70;;;11.80;99.90;;;;;;5038845;28;20033;-50
2023/03/22 09:24:38;;;;;;;4.57;2.75;;;11.90;99.90;;;;;;5037935;28;20718;-52
2023/03/22 09:27:04;;;;;;;14.65;3.00;;;11.90;99.90;;;;;;5037206;28;20045;-50
2023/03/22 09:29:29;;;;;;;10.38;3.78;;;11.90;99.90;;;;;;5036764;28;20410;-53
2023/03/22 09:31:55;;;;;;;11.52;3.08;;;11.90;99.90;;;;;;5038720;28;20090;-50
2023/03/22 09:34:21;;;;;;;9.65;3.33;;;11.90;99.90;;;;;;5034466;28;20095;-49
2023/03/22 09:36:47;;;;;;;13.88;3.80;;;11.90;99.90;;;;;;5036527;28;20049;-52
2023/03/22 09:39:12;;;;;;;7.88;3.40;;;11.90;99.90;;;;;;5035865;28;20056;-48
2023/03/22 09:41:55;;;;;;;7.60;3.47;;;12.00;99.90;;;;;;5036168;28;20037;-53
2023/03/22 09:44:28;;;;;;;10.05;4.05;;;12.00;99.90;;;;;;5037959;28;20041;-50
2023/03/22 09:46:58;;;;;;;6.35;2.78;;;12.00;99.90;;;;;;5034420;28;20371;-49
2023/03/22 09:49:29;;;;;;;7.05;2.97;;;12.00;99.90;;;;;;5042529;28;20045;-48
2023/03/22 09:51:55;;;;;;;12.45;3.17;;;12.00;99.90;;;;;;5044598;28;20055;-48
2023/03/22 09:54:30;;;;;;;11.25;3.95;;;12.00;99.90;;;;;;5045746;28;20048;-49
2023/03/22 09:57:32;;;;;;;12.90;3.85;;;12.00;99.90;;;;;;5048608;28;20045;-51
2023/03/22 10:00:13;;;;;;;9.50;2.88;;;11.90;99.90;;;;;;5044807;28;20072;-49
2023/03/22 10:02:44;;;;;;;12.52;3.50;;;11.80;99.90;;;;;;5048327;28;20033;-48
2023/03/22 10:05:29;;;;;;;9.35;3.95;;;11.80;99.90;;;;;;5049184;28;20498;-48
2023/03/22 10:07:57;;;;;;;9.45;2.90;;;11.90;99.90;;;;;;5047057;28;20041;-48
2023/03/22 10:10:24;;;;;;;9.27;3.42;;;11.80;99.90;;;;;;5048535;28;20055;-48
2023/03/22 10:12:56;;;;;;;;;;;11.80;99.90;;;;;;5048360;28;20041;-50
2023/03/22 10:15:33;;;;;;;7.22;3.03;;;11.80;99.90;;;;;;5046358;28;20007;-48
2023/03/22 10:18:00;;;;;;;;;;;11.70;99.90;;;;;;5046210;28;20406;-48
2023/03/22 10:21:02;;;;;;;8.20;2.90;;;11.70;99.90;;;;;;5045230;28;19920;-48
2023/03/22 10:23:38;;;;;;;14.27;3.55;;;11.70;99.90;;;;;;5042917;28;20156;-48
2023/03/22 10:26:06;;;;;;;8.68;2.95;;;11.60;99.90;;;;;;5047847;28;20041;-49
2023/03/22 10:28:46;;;;;;;9.77;2.78;;;11.60;99.90;;;;;;5047442;28;20032;-48
2023/03/22 10:31:16;;;;;;;9.35;3.47;;;11.60;99.90;;;;;;5046624;28;20084;-49
2023/03/22 10:33:54;;;;;;;10.30;3.25;;;11.60;99.90;;;;;;5045735;28;20060;-48
2023/03/22 10:36:23;;;;;;;11.65;2.90;;;11.50;99.90;;;;;;5048635;28;20139;-49
2023/03/22 10:38:55;;;;;;;11.48;3.33;;;11.50;99.90;;;;;;5044172;28;20048;-48
2023/03/22 10:41:24;;;;;;;8.95;3.22;;;11.50;99.90;;;;;;5046668;28;20498;-48
2023/03/22 10:43:54;;;;;;;12.98;4.13;;;11.50;99.90;;;;;;5047088;28;20075;-49
2023/03/22 10:46:25;;;;;;;8.02;3.67;;;11.50;99.90;;;;;;5042577;28;20836;-54
2023/03/22 10:48:56;;;;;;;10.10;4.32;;;11.50;99.90;;;;;;5058929;28;20043;-49
2023/03/22 10:52:00;;;;;;;8.65;3.95;;;11.40;99.90;;;;;;5039696;28;20043;-49
2023/03/22 10:54:26;;;;;;;12.20;3.83;;;11.40;99.90;;;;;;5002865;28;20050;-48
2023/03/22 10:56:52;;;;;;;11.13;4.55;;;11.40;99.90;;;;;;5004317;28;20065;-49
2023/03/22 10:59:51;;;;;;;12.88;3.97;;;11.30;99.90;;;;;;5002081;28;20041;-49
2023/03/22 11:02:34;;;;;;;8.55;3.80;;;11.30;99.90;;;;;;4945792;29;20050;-50
2023/03/22 11:05:03;;;;;;;14.15;5.00;;;11.30;99.90;;;;;;4946698;29;20043;-48
2023/03/22 11:07:38;;;;;;;10.40;4.10;;;11.20;99.90;;;;;;4945152;29;20138;-50
2023/03/22 11:10:20;;;;;;;12.95;4.80;;;11.20;99.90;;;;;;4946141;28;20055;-48
2023/03/22 11:13:06;;;;;;;12.68;4.15;;;11.20;99.90;;;;;;4946194;29;20054;-48
2023/03/22 11:15:34;;;;;;;12.93;4.63;;;11.20;99.90;;;;;;4947250;29;20124;-48
2023/03/22 11:18:05;;;;;;;11.57;4.43;;;11.20;99.90;;;;;;4946311;29;20328;-48
2023/03/22 11:20:33;;;;;;;10.80;3.88;;;11.20;99.90;;;;;;4946978;28;20044;-49
2023/03/22 11:23:05;;;;;;;11.85;3.00;;;11.20;99.90;;;;;;4947410;29;20039;-49
2023/03/22 11:25:34;;;;;;;12.40;3.95;;;11.20;99.90;;;;;;4947457;29;20051;-49
2023/03/22 11:28:03;;;;;;;6.95;2.90;;;11.20;99.90;;;;;;4945234;29;20133;-48
2023/03/22 11:30:30;;;;;;;14.25;3.95;;;11.30;99.90;;;;;;4959625;28;20121;-50
2023/03/22 11:33:18;;;;;;;12.93;4.32;;;11.30;99.90;;;;;;4963684;28;20043;-49
2023/03/22 11:35:47;;;;;;;9.45;3.58;;;11.30;99.90;;;;;;4964868;28;20125;-48
2023/03/22 11:38:30;;;;;;;14.88;4.70;;;11.20;99.90;;;;;;5016622;28;20055;-50
2023/03/22 11:41:02;;;;;;;9.25;3.13;;;11.20;99.90;;;;;;5045208;28;20036;-49
2023/03/22 11:43:51;;;;;;;7.10;3.17;;;11.20;99.90;;;;;;5048015;28;20049;-49
2023/03/22 11:46:20;;;;;;;11.25;4.03;;;11.20;99.90;;;;;;5044186;28;20037;-48
2023/03/22 11:48:48;;;;;;;11.30;3.88;;;11.20;99.90;;;;;;5049415;28;20375;-48
2023/03/22 11:51:17;;;;;;;10.30;3.75;;;11.20;99.90;;;;;;5048736;28;20044;-50
2023/03/22 11:53:46;;;;;;;9.73;3.15;;;11.20;99.90;;;;;;5047213;28;20038;-49
2023/03/22 11:56:17;;;;;;;15.60;4.05;;;11.10;99.90;;;;;;5048811;28;20037;-49
2023/03/22 11:58:58;;;;;;;12.02;4.15;;;11.10;99.90;;;;;;5049626;28;20091;-49
2023/03/22 12:01:41;;;;;;;10.65;3.63;;;11.10;99.90;;;;;;5037577;28;20144;-49
2023/03/22 12:04:14;;;;;;;11.20;2.90;;;11.10;99.90;;;;;;5043690;28;20045;-50
2023/03/22 12:06:41;;;;;;;6.78;2.70;;;11.10;99.90;;;;;;5036831;28;20699;-54
2023/03/22 12:09:09;;;;;;;5.25;2.70;;;11.10;99.90;;;;;;5044254;28;20044;-50
2023/03/22 12:11:42;;;;;;;9.77;3.05;;;11.00;99.90;;;;;;5042433;28;20576;-48
2023/03/22 12:14:42;;;;;;;10.13;2.85;;;11.10;99.90;;;;;;5042928;28;20052;-49
2023/03/22 12:17:30;;;;;;;12.63;3.30;;;11.10;99.90;;;;;;5037932;28;20583;-52
2023/03/22 12:20:20;;;;;;;9.68;3.15;;;11.10;99.90;;;;;;5044199;28;20045;-52
2023/03/22 12:22:52;;;;;;;9.02;2.67;;;11.10;99.90;;;;;;5039985;28;20494;-52
2023/03/22 12:25:38;;;;;;;15.85;4.00;;;11.10;99.90;;;;;;5036859;28;20044;-49
2023/03/22 12:28:15;;;;;;;11.23;2.97;;;11.10;99.90;;;;;;5055297;28;20075;-49
2023/03/22 12:30:47;;;;;;;7.43;2.83;;;11.20;99.90;;;;;;5044246;28;20071;-52
2023/03/22 12:33:17;;;;;;;12.57;3.15;;;11.20;99.90;;;;;;5066850;28;20056;-50
2023/03/22 12:35:46;;;;;;;8.30;2.42;;;11.20;99.90;;;;;;5050231;28;20068;-50
2023/03/22 12:38:45;;;;;;;9.10;2.15;;;11.20;99.90;;;;;;5030554;28;20041;-51
2023/03/22 12:41:17;;;;;;;8.20;2.65;;;11.20;99.90;;;;;;5041795;28;20108;-48
2023/03/22 12:43:52;;;;;;;7.32;2.47;;;11.20;99.90;;;;;;5035953;28;20037;-53
2023/03/22 12:46:26;;;;;;;8.52;2.33;;;11.20;99.90;;;;;;5036768;28;20045;-48
2023/03/22 12:48:59;;;;;;;5.03;2.50;;;11.20;99.90;;;;;;5045669;28;20135;-49
2023/03/22 12:51:25;;;;;;;9.73;2.28;;;11.20;99.90;;;;;;5035467;28;20095;-48
2023/03/22 12:53:56;;;;;;;14.23;2.40;;;11.20;99.90;;;;;;5027942;28;20045;-50
2023/03/22 12:56:30;;;;;;;11.13;2.25;;;11.20;99.90;;;;;;5041524;28;20044;-52
2023/03/22 12:59:03;;;;;;;12.13;2.30;;;11.20;99.90;;;;;;5044246;28;20037;-48